sensor_id;sensor_type;location;lat;lon;timestamp;P1;durP1;ratioP1;P2;durP2;ratioP2
48627;SDS011;34424;52.234;6.500;2023-12-14T00:03:55;26.2;;;13.8;;
48627;SDS011;34424;52.234;6.500;2023-12-14T00:08:55;26.3;;;14;;
48627;SDS011;34424;52.234;6.500;2023-12-14T00:13:55;27.8;;;13.6;;
48627;SDS011;34424;52.234;6.500;2023-12-14T00:18:55;24.2;;;13.3;;
48627;SDS011;34424;52.234;6.500;2023-12-14T00:23:55;24.7;;;13.2;;
48627;SDS011;34424;52.234;6.500;2023-12-14T00:28:55;25.7;;;12.9;;
48627;SDS011;34424;52.234;6.500;2023-12-14T00:33:55;24.1;;;11.4;;
48627;SDS011;34424;52.234;6.500;2023-12-14T00:38:55;25.6;;;13;;
48627;SDS011;34424;52.234;6.500;2023-12-14T00:43:55;26.1;;;13.5;;
48627;SDS011;34424;52.234;6.500;2023-12-14T00:48:55;26.9;;;13.3;;
48627;SDS011;34424;52.234;6.500;2023-12-14T00:53:55;24.2;;;13.2;;
48627;SDS011;34424;52.234;6.500;2023-12-14T00:58:55;24.6;;;12.4;;
48627;SDS011;34424;52.234;6.500;2023-12-14T01:03:55;24.6;;;13;;
48627;SDS011;34424;52.234;6.500;2023-12-14T01:08:55;20.8;;;11.9;;
48627;SDS011;34424;52.234;6.500;2023-12-14T01:13:55;20.1;;;10.8;;
48627;SDS011;34424;52.234;6.500;2023-12-14T01:18:55;21.5;;;11.1;;
48627;SDS011;34424;52.234;6.500;2023-12-14T01:23:55;21.3;;;11.6;;
48627;SDS011;34424;52.234;6.500;2023-12-14T01:28:45;21.1;;;12;;
48627;SDS011;34424;52.234;6.500;2023-12-14T01:33:45;20.3;;;10.5;;
48627;SDS011;34424;52.234;6.500;2023-12-14T01:38:44;18.7;;;11;;
48627;SDS011;34424;52.234;6.500;2023-12-14T01:43:44;17.6;;;10.2;;
48627;SDS011;34424;52.234;6.500;2023-12-14T01:48:43;17.5;;;10.8;;
48627;SDS011;34424;52.234;6.500;2023-12-14T01:53:43;18.6;;;10.5;;
48627;SDS011;34424;52.234;6.500;2023-12-14T01:58:43;16.9;;;10.4;;
48627;SDS011;34424;52.234;6.500;2023-12-14T02:03:47;17.9;;;9.3;;
48627;SDS011;34424;52.234;6.500;2023-12-14T02:08:42;13.6;;;8.5;;
48627;SDS011;34424;52.234;6.500;2023-12-14T02:13:42;13.9;;;9;;
48627;SDS011;34424;52.234;6.500;2023-12-14T02:18:41;17.9;;;9.6;;
48627;SDS011;34424;52.234;6.500;2023-12-14T02:23:46;16;;;9.7;;
48627;SDS011;34424;52.234;6.500;2023-12-14T02:28:41;16.8;;;9.2;;
48627;SDS011;34424;52.234;6.500;2023-12-14T02:33:40;15;;;8.9;;
48627;SDS011;34424;52.234;6.500;2023-12-14T02:38:40;13.8;;;8.3;;
48627;SDS011;34424;52.234;6.500;2023-12-14T02:43:39;16.6;;;9.7;;
48627;SDS011;34424;52.234;6.500;2023-12-14T02:48:39;16.7;;;10.6;;
48627;SDS011;34424;52.234;6.500;2023-12-14T02:53:39;21.2;;;11.5;;
48627;SDS011;34424;52.234;6.500;2023-12-14T02:58:39;16.8;;;10.4;;
48627;SDS011;34424;52.234;6.500;2023-12-14T03:03:38;17.9;;;10.2;;
48627;SDS011;34424;52.234;6.500;2023-12-14T03:08:38;16.6;;;9.7;;
48627;SDS011;34424;52.234;6.500;2023-12-14T03:13:37;17.2;;;9.9;;
48627;SDS011;34424;52.234;6.500;2023-12-14T03:18:37;17.7;;;10.1;;
48627;SDS011;34424;52.234;6.500;2023-12-14T03:23:37;17.5;;;9.6;;
48627;SDS011;34424;52.234;6.500;2023-12-14T03:28:37;13.6;;;8.6;;
48627;SDS011;34424;52.234;6.500;2023-12-14T03:33:36;14.5;;;9.1;;
48627;SDS011;34424;52.234;6.500;2023-12-14T03:38:36;13.7;;;8.5;;
48627;SDS011;34424;52.234;6.500;2023-12-14T03:43:35;13.8;;;8.7;;
48627;SDS011;34424;52.234;6.500;2023-12-14T03:48:35;15.1;;;9.3;;
48627;SDS011;34424;52.234;6.500;2023-12-14T03:53:35;14.9;;;9.4;;
48627;SDS011;34424;52.234;6.500;2023-12-14T03:58:35;14.5;;;8.7;;
48627;SDS011;34424;52.234;6.500;2023-12-14T04:03:34;14.1;;;9.1;;
48627;SDS011;34424;52.234;6.500;2023-12-14T04:08:34;13.5;;;8.7;;
48627;SDS011;34424;52.234;6.500;2023-12-14T04:13:34;15.1;;;9.2;;
48627;SDS011;34424;52.234;6.500;2023-12-14T04:18:34;15;;;8.6;;
48627;SDS011;34424;52.234;6.500;2023-12-14T04:23:33;16.3;;;9.4;;
48627;SDS011;34424;52.234;6.500;2023-12-14T04:28:33;14.5;;;8.9;;
48627;SDS011;34424;52.234;6.500;2023-12-14T04:33:32;15.3;;;9.5;;
48627;SDS011;34424;52.234;6.500;2023-12-14T04:38:32;16.1;;;9.7;;
48627;SDS011;34424;52.234;6.500;2023-12-14T04:43:32;15.4;;;9.1;;
48627;SDS011;34424;52.234;6.500;2023-12-14T04:48:31;13.7;;;8.8;;
48627;SDS011;34424;52.234;6.500;2023-12-14T04:53:31;14.3;;;9.6;;
48627;SDS011;34424;52.234;6.500;2023-12-14T04:58:30;13.6;;;8.2;;
48627;SDS011;34424;52.234;6.500;2023-12-14T05:03:30;14.6;;;8.5;;
48627;SDS011;34424;52.234;6.500;2023-12-14T05:08:30;16.6;;;8.1;;
48627;SDS011;34424;52.234;6.500;2023-12-14T05:13:30;16.8;;;8.4;;
48627;SDS011;34424;52.234;6.500;2023-12-14T05:18:29;15.9;;;8.7;;
48627;SDS011;34424;52.234;6.500;2023-12-14T05:23:29;16.9;;;9.5;;
48627;SDS011;34424;52.234;6.500;2023-12-14T05:28:28;15.4;;;8.6;;
48627;SDS011;34424;52.234;6.500;2023-12-14T05:33:28;16.6;;;9.2;;
48627;SDS011;34424;52.234;6.500;2023-12-14T05:38:28;18.9;;;9.5;;
48627;SDS011;34424;52.234;6.500;2023-12-14T05:43:27;16.3;;;9;;
48627;SDS011;34424;52.234;6.500;2023-12-14T05:48:27;18.7;;;9.5;;
48627;SDS011;34424;52.234;6.500;2023-12-14T05:53:27;15.2;;;9.3;;
48627;SDS011;34424;52.234;6.500;2023-12-14T05:58:26;19.1;;;9.9;;
48627;SDS011;34424;52.234;6.500;2023-12-14T06:03:26;17.2;;;8.9;;
48627;SDS011;34424;52.234;6.500;2023-12-14T06:08:26;15.9;;;8.8;;
48627;SDS011;34424;52.234;6.500;2023-12-14T06:13:25;17.8;;;9.6;;
48627;SDS011;34424;52.234;6.500;2023-12-14T06:18:25;18.6;;;9.2;;
48627;SDS011;34424;52.234;6.500;2023-12-14T06:23:25;16.3;;;9.3;;
48627;SDS011;34424;52.234;6.500;2023-12-14T06:28:24;17.9;;;10;;
48627;SDS011;34424;52.234;6.500;2023-12-14T06:33:24;16.3;;;8.4;;
48627;SDS011;34424;52.234;6.500;2023-12-14T06:38:24;16.6;;;9.3;;
48627;SDS011;34424;52.234;6.500;2023-12-14T06:43:23;17.3;;;9.5;;
48627;SDS011;34424;52.234;6.500;2023-12-14T06:48:23;17.8;;;10.2;;
48627;SDS011;34424;52.234;6.500;2023-12-14T06:53:22;17.5;;;9.2;;
48627;SDS011;34424;52.234;6.500;2023-12-14T06:58:22;19.1;;;9.5;;
48627;SDS011;34424;52.234;6.500;2023-12-14T07:03:22;15.6;;;8.9;;
48627;SDS011;34424;52.234;6.500;2023-12-14T07:08:21;19;;;9.3;;
48627;SDS011;34424;52.234;6.500;2023-12-14T07:13:21;21.3;;;10.4;;
48627;SDS011;34424;52.234;6.500;2023-12-14T07:18:20;16.7;;;9.1;;
48627;SDS011;34424;52.234;6.500;2023-12-14T07:23:20;16.1;;;9.4;;
48627;SDS011;34424;52.234;6.500;2023-12-14T07:28:20;15.6;;;8.9;;
48627;SDS011;34424;52.234;6.500;2023-12-14T07:33:19;16.2;;;9.6;;
48627;SDS011;34424;52.234;6.500;2023-12-14T07:38:19;14.8;;;9;;
48627;SDS011;34424;52.234;6.500;2023-12-14T07:43:19;15.6;;;8.8;;
48627;SDS011;34424;52.234;6.500;2023-12-14T07:48:18;14.7;;;8.7;;
48627;SDS011;34424;52.234;6.500;2023-12-14T07:53:18;12.9;;;8.6;;
48627;SDS011;34424;52.234;6.500;2023-12-14T07:58:17;14.8;;;8.7;;
48627;SDS011;34424;52.234;6.500;2023-12-14T08:03:17;14.2;;;8.5;;
48627;SDS011;34424;52.234;6.500;2023-12-14T08:08:17;14.4;;;8.2;;
48627;SDS011;34424;52.234;6.500;2023-12-14T08:13:16;12.4;;;6.7;;
48627;SDS011;34424;52.234;6.500;2023-12-14T08:18:16;9.5;;;6.2;;
48627;SDS011;34424;52.234;6.500;2023-12-14T08:23:16;10.8;;;6.9;;
48627;SDS011;34424;52.234;6.500;2023-12-14T08:28:15;10.7;;;6.9;;
48627;SDS011;34424;52.234;6.500;2023-12-14T08:33:15;12.1;;;7.5;;
48627;SDS011;34424;52.234;6.500;2023-12-14T08:38:14;10.9;;;7.5;;
48627;SDS011;34424;52.234;6.500;2023-12-14T08:43:14;11.6;;;6.8;;
48627;SDS011;34424;52.234;6.500;2023-12-14T08:48:14;11.8;;;7.2;;
48627;SDS011;34424;52.234;6.500;2023-12-14T08:53:13;11.6;;;7.6;;
48627;SDS011;34424;52.234;6.500;2023-12-14T08:58:13;11.4;;;6.9;;
48627;SDS011;34424;52.234;6.500;2023-12-14T09:03:13;11.7;;;7.2;;
48627;SDS011;34424;52.234;6.500;2023-12-14T09:08:19;12.1;;;7.8;;
48627;SDS011;34424;52.234;6.500;2023-12-14T09:13:12;15.2;;;9.5;;
48627;SDS011;34424;52.234;6.500;2023-12-14T09:18:11;19.4;;;10.5;;
48627;SDS011;34424;52.234;6.500;2023-12-14T09:23:11;13;;;8.9;;
48627;SDS011;34424;52.234;6.500;2023-12-14T09:28:11;12.4;;;7.6;;
48627;SDS011;34424;52.234;6.500;2023-12-14T09:33:10;15.6;;;9.2;;
48627;SDS011;34424;52.234;6.500;2023-12-14T09:38:10;15.9;;;9.3;;
48627;SDS011;34424;52.234;6.500;2023-12-14T09:43:10;14.9;;;9;;
48627;SDS011;34424;52.234;6.500;2023-12-14T09:48:12;15.1;;;8.8;;
48627;SDS011;34424;52.234;6.500;2023-12-14T09:53:09;13.5;;;8.3;;
48627;SDS011;34424;52.234;6.500;2023-12-14T09:58:09;24.7;;;13.6;;
48627;SDS011;34424;52.234;6.500;2023-12-14T10:03:21;29.7;;;16.5;;
48627;SDS011;34424;52.234;6.500;2023-12-14T10:08:08;25.6;;;13.8;;
48627;SDS011;34424;52.234;6.500;2023-12-14T10:13:07;20.9;;;12.1;;
48627;SDS011;34424;52.234;6.500;2023-12-14T10:18:09;21.3;;;11.2;;
48627;SDS011;34424;52.234;6.500;2023-12-14T10:23:07;18.8;;;10.6;;
48627;SDS011;34424;52.234;6.500;2023-12-14T10:28:06;15.1;;;9.2;;
48627;SDS011;34424;52.234;6.500;2023-12-14T10:33:06;16.8;;;9.1;;
48627;SDS011;34424;52.234;6.500;2023-12-14T10:38:06;16.7;;;8.7;;
48627;SDS011;34424;52.234;6.500;2023-12-14T10:43:05;17.6;;;9;;
48627;SDS011;34424;52.234;6.500;2023-12-14T10:48:05;12.9;;;8.6;;
48627;SDS011;34424;52.234;6.500;2023-12-14T10:53:05;14.2;;;8.6;;
48627;SDS011;34424;52.234;6.500;2023-12-14T10:58:04;15.3;;;9;;
48627;SDS011;34424;52.234;6.500;2023-12-14T11:03:04;15.8;;;7.7;;
48627;SDS011;34424;52.234;6.500;2023-12-14T11:08:04;14.2;;;7.7;;
48627;SDS011;34424;52.234;6.500;2023-12-14T11:13:05;11.4;;;6.6;;
48627;SDS011;34424;52.234;6.500;2023-12-14T11:23:10;12.2;;;6.4;;
48627;SDS011;34424;52.234;6.500;2023-12-14T11:28:05;12.3;;;6.7;;
48627;SDS011;34424;52.234;6.500;2023-12-14T11:33:02;11.3;;;7.1;;
48627;SDS011;34424;52.234;6.500;2023-12-14T11:38:02;11;;;6.7;;
48627;SDS011;34424;52.234;6.500;2023-12-14T11:43:02;11.8;;;7.2;;
48627;SDS011;34424;52.234;6.500;2023-12-14T11:48:01;12.1;;;6.9;;
48627;SDS011;34424;52.234;6.500;2023-12-14T11:53:01;13.8;;;7.8;;
48627;SDS011;34424;52.234;6.500;2023-12-14T11:58:00;11.8;;;7.3;;
48627;SDS011;34424;52.234;6.500;2023-12-14T12:03:10;14.8;;;8.5;;
48627;SDS011;34424;52.234;6.500;2023-12-14T12:08:00;14;;;7.8;;
48627;SDS011;34424;52.234;6.500;2023-12-14T12:13:02;10.5;;;6.3;;
48627;SDS011;34424;52.234;6.500;2023-12-14T12:17:59;13.2;;;7.3;;
48627;SDS011;34424;52.234;6.500;2023-12-14T12:22:58;13.3;;;7;;
48627;SDS011;34424;52.234;6.500;2023-12-14T12:27:58;14.8;;;7.9;;
48627;SDS011;34424;52.234;6.500;2023-12-14T12:32:58;12.4;;;7;;
48627;SDS011;34424;52.234;6.500;2023-12-14T12:37:58;14.5;;;7.5;;
48627;SDS011;34424;52.234;6.500;2023-12-14T12:42:57;13.9;;;7.2;;
48627;SDS011;34424;52.234;6.500;2023-12-14T12:47:57;13.7;;;7.8;;
48627;SDS011;34424;52.234;6.500;2023-12-14T12:52:57;13.7;;;7.9;;
48627;SDS011;34424;52.234;6.500;2023-12-14T12:57:56;13.4;;;7.9;;
48627;SDS011;34424;52.234;6.500;2023-12-14T13:02:56;14.6;;;7.7;;
48627;SDS011;34424;52.234;6.500;2023-12-14T13:07:55;15.4;;;8.6;;
48627;SDS011;34424;52.234;6.500;2023-12-14T13:12:55;16.3;;;7.9;;
48627;SDS011;34424;52.234;6.500;2023-12-14T13:17:55;14;;;7.9;;
48627;SDS011;34424;52.234;6.500;2023-12-14T13:22:54;14.4;;;7.7;;
48627;SDS011;34424;52.234;6.500;2023-12-14T13:27:54;14;;;7.7;;
48627;SDS011;34424;52.234;6.500;2023-12-14T13:32:54;13.2;;;7.7;;
48627;SDS011;34424;52.234;6.500;2023-12-14T13:37:53;12;;;7.5;;
48627;SDS011;34424;52.234;6.500;2023-12-14T13:42:53;13.4;;;7.8;;
48627;SDS011;34424;52.234;6.500;2023-12-14T13:47:52;15.5;;;7.3;;
48627;SDS011;34424;52.234;6.500;2023-12-14T13:52:54;13.9;;;8.1;;
48627;SDS011;34424;52.234;6.500;2023-12-14T13:57:52;14;;;7.6;;
48627;SDS011;34424;52.234;6.500;2023-12-14T14:02:51;13.5;;;7.6;;
48627;SDS011;34424;52.234;6.500;2023-12-14T14:07:51;13.9;;;7.1;;
48627;SDS011;34424;52.234;6.500;2023-12-14T14:12:51;13.5;;;7.4;;
48627;SDS011;34424;52.234;6.500;2023-12-14T14:17:50;14.4;;;7.9;;
48627;SDS011;34424;52.234;6.500;2023-12-14T14:22:50;11.6;;;6.9;;
48627;SDS011;34424;52.234;6.500;2023-12-14T14:27:50;13.6;;;8.2;;
48627;SDS011;34424;52.234;6.500;2023-12-14T14:32:49;15.5;;;7.7;;
48627;SDS011;34424;52.234;6.500;2023-12-14T14:37:49;13.5;;;8.1;;
48627;SDS011;34424;52.234;6.500;2023-12-14T14:42:49;15.9;;;8.8;;
48627;SDS011;34424;52.234;6.500;2023-12-14T14:47:48;14.7;;;7.9;;
48627;SDS011;34424;52.234;6.500;2023-12-14T14:52:49;18.9;;;9.8;;
48627;SDS011;34424;52.234;6.500;2023-12-14T14:57:47;19.2;;;9.8;;
48627;SDS011;34424;52.234;6.500;2023-12-14T15:02:49;15.2;;;8;;
48627;SDS011;34424;52.234;6.500;2023-12-14T15:07:47;14.2;;;7.7;;
48627;SDS011;34424;52.234;6.500;2023-12-14T15:12:46;16.9;;;9.2;;
48627;SDS011;34424;52.234;6.500;2023-12-14T15:17:46;16;;;8.9;;
48627;SDS011;34424;52.234;6.500;2023-12-14T15:22:45;15.9;;;8.3;;
48627;SDS011;34424;52.234;6.500;2023-12-14T15:27:45;14.7;;;8.9;;
48627;SDS011;34424;52.234;6.500;2023-12-14T15:32:45;20.5;;;10.2;;
48627;SDS011;34424;52.234;6.500;2023-12-14T15:37:44;15.6;;;8.4;;
48627;SDS011;34424;52.234;6.500;2023-12-14T15:42:44;16.1;;;8;;
48627;SDS011;34424;52.234;6.500;2023-12-14T15:47:43;16.2;;;8.4;;
48627;SDS011;34424;52.234;6.500;2023-12-14T15:52:43;20.7;;;8.9;;
48627;SDS011;34424;52.234;6.500;2023-12-14T15:57:43;17.6;;;9.7;;
48627;SDS011;34424;52.234;6.500;2023-12-14T16:02:42;23.6;;;12.7;;
48627;SDS011;34424;52.234;6.500;2023-12-14T16:07:42;27.5;;;13.2;;
48627;SDS011;34424;52.234;6.500;2023-12-14T16:12:41;24.8;;;12.2;;
48627;SDS011;34424;52.234;6.500;2023-12-14T16:17:41;20;;;10.7;;
48627;SDS011;34424;52.234;6.500;2023-12-14T16:22:40;22.1;;;11;;
48627;SDS011;34424;52.234;6.500;2023-12-14T16:27:40;20.8;;;11.3;;
48627;SDS011;34424;52.234;6.500;2023-12-14T16:32:40;20.1;;;10.7;;
48627;SDS011;34424;52.234;6.500;2023-12-14T16:37:39;22;;;10.4;;
48627;SDS011;34424;52.234;6.500;2023-12-14T16:42:39;19;;;10.5;;
48627;SDS011;34424;52.234;6.500;2023-12-14T16:47:38;22.8;;;13.1;;
48627;SDS011;34424;52.234;6.500;2023-12-14T16:52:38;25.6;;;13.3;;
48627;SDS011;34424;52.234;6.500;2023-12-14T16:57:38;29.9;;;14.3;;
48627;SDS011;34424;52.234;6.500;2023-12-14T17:02:37;28.3;;;14.5;;
48627;SDS011;34424;52.234;6.500;2023-12-14T17:07:37;32.7;;;18.4;;
48627;SDS011;34424;52.234;6.500;2023-12-14T17:12:36;38.2;;;22.4;;
48627;SDS011;34424;52.234;6.500;2023-12-14T17:17:36;44.7;;;23.7;;
48627;SDS011;34424;52.234;6.500;2023-12-14T17:22:36;26.2;;;14.3;;
48627;SDS011;34424;52.234;6.500;2023-12-14T17:27:35;24.2;;;13.9;;
48627;SDS011;34424;52.234;6.500;2023-12-14T17:32:35;23.3;;;12.7;;
48627;SDS011;34424;52.234;6.500;2023-12-14T17:37:34;21.6;;;10.1;;
48627;SDS011;34424;52.234;6.500;2023-12-14T17:42:34;21.4;;;12;;
48627;SDS011;34424;52.234;6.500;2023-12-14T17:47:34;22.8;;;12;;
48627;SDS011;34424;52.234;6.500;2023-12-14T17:52:33;20.9;;;10.6;;
48627;SDS011;34424;52.234;6.500;2023-12-14T17:57:33;20.1;;;11.1;;
48627;SDS011;34424;52.234;6.500;2023-12-14T18:02:32;22.4;;;12.2;;
48627;SDS011;34424;52.234;6.500;2023-12-14T18:07:32;21.8;;;11.5;;
48627;SDS011;34424;52.234;6.500;2023-12-14T18:12:32;22.9;;;11.5;;
48627;SDS011;34424;52.234;6.500;2023-12-14T18:17:31;21.4;;;11;;
48627;SDS011;34424;52.234;6.500;2023-12-14T18:22:31;20.6;;;10.6;;
48627;SDS011;34424;52.234;6.500;2023-12-14T18:27:30;20.1;;;11.5;;
48627;SDS011;34424;52.234;6.500;2023-12-14T18:32:30;19.4;;;9.9;;
48627;SDS011;34424;52.234;6.500;2023-12-14T18:37:30;21.8;;;11.3;;
48627;SDS011;34424;52.234;6.500;2023-12-14T18:42:29;20;;;11;;
48627;SDS011;34424;52.234;6.500;2023-12-14T18:47:29;20.6;;;10.8;;
48627;SDS011;34424;52.234;6.500;2023-12-14T18:52:28;21.4;;;11.4;;
48627;SDS011;34424;52.234;6.500;2023-12-14T18:57:28;25.8;;;14.4;;
48627;SDS011;34424;52.234;6.500;2023-12-14T19:02:28;26.5;;;12.8;;
48627;SDS011;34424;52.234;6.500;2023-12-14T19:07:27;32.6;;;19.5;;
48627;SDS011;34424;52.234;6.500;2023-12-14T19:12:27;34.5;;;19;;
48627;SDS011;34424;52.234;6.500;2023-12-14T19:17:27;26.5;;;16;;
48627;SDS011;34424;52.234;6.500;2023-12-14T19:22:26;31;;;15.4;;
48627;SDS011;34424;52.234;6.500;2023-12-14T19:27:26;24.2;;;13.9;;
48627;SDS011;34424;52.234;6.500;2023-12-14T19:32:25;25.1;;;13.9;;
48627;SDS011;34424;52.234;6.500;2023-12-14T19:37:25;26.7;;;14.8;;
48627;SDS011;34424;52.234;6.500;2023-12-14T19:42:25;24.7;;;14.7;;
48627;SDS011;34424;52.234;6.500;2023-12-14T19:47:24;26.7;;;14.8;;
48627;SDS011;34424;52.234;6.500;2023-12-14T19:52:24;29.3;;;16.1;;
48627;SDS011;34424;52.234;6.500;2023-12-14T19:57:24;26.1;;;14.8;;
48627;SDS011;34424;52.234;6.500;2023-12-14T20:02:23;23.7;;;13;;
48627;SDS011;34424;52.234;6.500;2023-12-14T20:07:23;23;;;13;;
48627;SDS011;34424;52.234;6.500;2023-12-14T20:12:22;25.7;;;13.6;;
48627;SDS011;34424;52.234;6.500;2023-12-14T20:17:22;26.7;;;13.5;;
48627;SDS011;34424;52.234;6.500;2023-12-14T20:22:22;28.1;;;14.2;;
48627;SDS011;34424;52.234;6.500;2023-12-14T20:27:21;25.9;;;14.7;;
48627;SDS011;34424;52.234;6.500;2023-12-14T20:32:21;26.3;;;13;;
48627;SDS011;34424;52.234;6.500;2023-12-14T20:37:20;28.8;;;14.9;;
48627;SDS011;34424;52.234;6.500;2023-12-14T20:42:20;30.6;;;15.2;;
48627;SDS011;34424;52.234;6.500;2023-12-14T20:47:20;26.7;;;14.7;;
48627;SDS011;34424;52.234;6.500;2023-12-14T20:52:19;30.9;;;15.9;;
48627;SDS011;34424;52.234;6.500;2023-12-14T20:57:19;29.1;;;15.1;;
48627;SDS011;34424;52.234;6.500;2023-12-14T21:02:19;30.4;;;16.3;;
48627;SDS011;34424;52.234;6.500;2023-12-14T21:07:18;36;;;17.1;;
48627;SDS011;34424;52.234;6.500;2023-12-14T21:12:18;35.4;;;16.5;;
48627;SDS011;34424;52.234;6.500;2023-12-14T21:17:17;31.2;;;16.1;;
48627;SDS011;34424;52.234;6.500;2023-12-14T21:22:17;34.3;;;17.2;;
48627;SDS011;34424;52.234;6.500;2023-12-14T21:27:17;37.4;;;16.3;;
48627;SDS011;34424;52.234;6.500;2023-12-14T21:32:16;35.4;;;18.1;;
48627;SDS011;34424;52.234;6.500;2023-12-14T21:37:16;33.6;;;16.9;;
48627;SDS011;34424;52.234;6.500;2023-12-14T21:42:16;33.8;;;16.3;;
48627;SDS011;34424;52.234;6.500;2023-12-14T21:47:15;35.8;;;16.3;;
48627;SDS011;34424;52.234;6.500;2023-12-14T21:52:15;32.5;;;15.9;;
48627;SDS011;34424;52.234;6.500;2023-12-14T21:57:14;33;;;17.3;;
48627;SDS011;34424;52.234;6.500;2023-12-14T22:02:14;38.7;;;17;;
48627;SDS011;34424;52.234;6.500;2023-12-14T22:07:14;33.5;;;17.5;;
48627;SDS011;34424;52.234;6.500;2023-12-14T22:12:13;37.6;;;20.3;;
48627;SDS011;34424;52.234;6.500;2023-12-14T22:17:13;36.6;;;16.7;;
48627;SDS011;34424;52.234;6.500;2023-12-14T22:22:12;33.5;;;17.4;;
48627;SDS011;34424;52.234;6.500;2023-12-14T22:27:12;40.3;;;19;;
48627;SDS011;34424;52.234;6.500;2023-12-14T22:32:12;38.4;;;16.8;;
48627;SDS011;34424;52.234;6.500;2023-12-14T22:37:11;33.3;;;18;;
48627;SDS011;34424;52.234;6.500;2023-12-14T22:42:11;34.3;;;17.3;;
48627;SDS011;34424;52.234;6.500;2023-12-14T22:47:11;34.9;;;17.8;;
48627;SDS011;34424;52.234;6.500;2023-12-14T22:52:10;31.6;;;16.6;;
48627;SDS011;34424;52.234;6.500;2023-12-14T22:57:10;34.3;;;17;;
48627;SDS011;34424;52.234;6.500;2023-12-14T23:02:09;34.4;;;16.2;;
48627;SDS011;34424;52.234;6.500;2023-12-14T23:07:09;30.6;;;16.4;;
48627;SDS011;34424;52.234;6.500;2023-12-14T23:12:09;30.1;;;16.4;;
48627;SDS011;34424;52.234;6.500;2023-12-14T23:17:08;32.5;;;16.6;;
48627;SDS011;34424;52.234;6.500;2023-12-14T23:22:08;32.4;;;16.9;;
48627;SDS011;34424;52.234;6.500;2023-12-14T23:27:07;30.2;;;15.3;;
48627;SDS011;34424;52.234;6.500;2023-12-14T23:32:07;29.4;;;16.1;;
48627;SDS011;34424;52.234;6.500;2023-12-14T23:37:07;33;;;16.5;;
48627;SDS011;34424;52.234;6.500;2023-12-14T23:42:06;31.4;;;15.5;;
48627;SDS011;34424;52.234;6.500;2023-12-14T23:47:06;29.1;;;15.5;;
48627;SDS011;34424;52.234;6.500;2023-12-14T23:52:05;29.9;;;15.2;;
48627;SDS011;34424;52.234;6.500;2023-12-14T23:57:05;28.6;;;14.8;;
